Time;durP1;ratioP1;P1;durP2;ratioP2;P2;SDS_P1;SDS_P2;PMS_P1;PMS_P2;Temp;Humidity;BMP_temperature;BMP_pressure;BME280_temperature;BME280_humidity;BME280_pressure;Samples;Min_cycle;Max_cycle;Signal;HPM_P1;HPM_P2
2022/07/01 00:01:23;;;;;;;37.03;27.17;;;;;;;13.70;100.00;101412.78;5083591;28;20062;-81
2022/07/01 00:03:49;;;;;;;38.03;27.67;;;;;;;13.62;100.00;101427.75;5067811;28;20055;-79
2022/07/01 00:06:15;;;;;;;38.60;27.52;;;;;;;13.60;100.00;101445.63;5069294;28;20029;-80
2022/07/01 00:08:40;;;;;;;40.60;26.20;;;;;;;13.52;100.00;101444.03;5070017;28;20055;-80
2022/07/01 00:11:06;;;;;;;33.78;25.25;;;;;;;13.48;100.00;101435.41;5088177;28;20058;-80
2022/07/01 00:13:32;;;;;;;32.65;25.25;;;;;;;13.43;100.00;101439.94;5075938;28;20024;-80
2022/07/01 00:15:57;;;;;;;33.35;25.50;;;;;;;13.42;100.00;101432.72;5067625;28;20024;-79
2022/07/01 00:18:23;;;;;;;34.20;24.80;;;;;;;13.39;100.00;101417.50;5080833;28;21337;-79
2022/07/01 00:20:50;;;;;;;32.92;25.05;;;;;;;13.36;100.00;101417.97;5069040;28;20137;-80
2022/07/01 00:23:16;;;;;;;34.88;24.65;;;;;;;13.33;100.00;101415.69;5076232;28;20150;-80
2022/07/01 00:25:42;;;;;;;32.58;23.30;;;;;;;13.30;100.00;101416.16;5084297;28;20016;-80
2022/07/01 00:28:07;;;;;;;31.83;23.63;;;;;;;13.25;100.00;101427.03;5093225;28;20024;-80
2022/07/01 00:30:32;;;;;;;31.30;22.55;;;;;;;13.22;100.00;101416.47;5086922;28;20032;-79
2022/07/01 00:32:58;;;;;;;30.35;22.15;;;;;;;13.20;100.00;101424.97;5076199;28;20016;-80
2022/07/01 00:35:23;;;;;;;27.65;21.80;;;;;;;13.15;100.00;101426.72;5087602;28;20047;-79
2022/07/01 00:37:48;;;;;;;32.45;22.15;;;;;;;13.13;100.00;101420.63;5077387;28;20448;-79
2022/07/01 00:40:14;;;;;;;29.67;20.95;;;;;;;13.11;100.00;101409.81;5076345;28;20063;-79
2022/07/01 00:42:40;;;;;;;29.67;20.55;;;;;;;13.10;100.00;101405.38;5077555;28;20020;-79
2022/07/01 00:45:08;;;;;;;27.00;19.98;;;;;;;13.08;100.00;101414.97;5075737;28;20451;-80
2022/07/01 00:47:34;;;;;;;27.75;20.05;;;;;;;13.11;100.00;101408.97;5091485;28;20058;-80
2022/07/01 00:49:59;;;;;;;26.40;19.42;;;;;;;13.17;100.00;101408.03;5077430;28;20048;-81
2022/07/01 00:52:25;;;;;;;30.15;21.33;;;;;;;13.11;100.00;101409.81;5077212;28;20020;-80
2022/07/01 00:54:51;;;;;;;30.65;20.27;;;;;;;13.12;100.00;101410.63;5077166;28;20020;-80
2022/07/01 00:57:16;;;;;;;32.88;22.35;;;;;;;13.14;100.00;101406.59;5078157;28;20035;-80
2022/07/01 00:59:41;;;;;;;31.90;22.90;;;;;;;13.12;100.00;101413.41;5077269;28;20020;-80
2022/07/01 01:02:08;;;;;;;34.13;23.35;;;;;;;13.16;100.00;101418.22;5088577;28;20024;-81
2022/07/01 01:04:33;;;;;;;33.25;22.50;;;;;;;13.18;100.00;101409.72;5094751;28;20331;-80
2022/07/01 01:07:01;;;;;;;33.90;23.33;;;;;;;13.22;100.00;101410.94;5089001;28;20451;-80
2022/07/01 01:09:28;;;;;;;35.58;24.42;;;;;;;13.24;100.00;101419.84;5088004;28;20083;-80
2022/07/01 01:11:53;;;;;;;34.53;24.10;;;;;;;13.26;100.00;101427.88;5077015;28;20096;-81
2022/07/01 01:14:18;;;;;;;35.50;25.55;;;;;;;13.27;100.00;101435.91;5068532;28;20118;-82
2022/07/01 01:16:44;;;;;;;36.17;25.02;;;;;;;13.31;100.00;101439.06;5075694;28;20032;-79
2022/07/01 01:19:09;;;;;;;37.08;24.42;;;;;;;13.29;100.00;101433.78;5068176;28;20064;-80
2022/07/01 01:21:34;;;;;;;36.05;24.98;;;;;;;13.32;100.00;101446.25;5075447;28;20360;-80
2022/07/01 01:24:00;;;;;;;37.17;25.45;;;;;;;13.31;100.00;101455.63;5086574;28;20016;-80
2022/07/01 01:26:25;;;;;;;39.28;27.10;;;;;;;13.30;100.00;101464.97;5086966;28;20024;-81
2022/07/01 01:28:51;;;;;;;40.08;26.27;;;;;;;13.28;100.00;101464.34;5083757;28;20024;-79
2022/07/01 01:31:18;;;;;;;41.67;26.08;;;;;;;13.28;100.00;101464.34;5084133;28;20029;-80
2022/07/01 01:33:43;;;;;;;40.80;26.90;;;;;;;13.28;100.00;101462.44;5069253;28;20025;-66
2022/07/01 01:36:09;;;;;;;39.70;26.15;;;;;;;13.30;100.00;101464.97;5085397;28;20040;-80
2022/07/01 01:38:36;;;;;;;40.53;26.35;;;;;;;13.26;100.00;101466.50;5072422;28;20025;-79
2022/07/01 01:41:02;;;;;;;39.60;26.58;;;;;;;13.25;100.00;101471.19;5066969;28;20388;-79
2022/07/01 01:43:28;;;;;;;41.97;28.33;;;;;;;13.25;100.00;101462.91;5067400;28;20440;-79
2022/07/01 01:45:53;;;;;;;43.97;28.20;;;;;;;13.33;100.00;101462.59;5067811;28;20115;-80
2022/07/01 01:48:18;;;;;;;40.33;26.58;;;;;;;13.36;100.00;101466.78;5066453;28;20025;-81
2022/07/01 01:50:43;;;;;;;38.05;26.67;;;;;;;13.35;100.00;101474.22;5080798;28;20078;-79
2022/07/01 01:53:09;;;;;;;37.05;25.20;;;;;;;13.38;100.00;101479.28;5088833;28;20028;-81
2022/07/01 01:55:34;;;;;;;34.17;23.85;;;;;;;13.37;100.00;101466.53;5083498;28;20548;-80
2022/07/01 01:57:59;;;;;;;37.30;25.15;;;;;;;13.37;100.00;101463.78;5066058;28;20032;-82
2022/07/01 02:00:25;;;;;;;39.42;24.88;;;;;;;13.39;100.00;101455.28;5067327;28;20036;-79
2022/07/01 02:02:50;;;;;;;38.72;25.75;;;;;;;13.39;100.00;101460.81;5068506;28;20126;-81
2022/07/01 02:05:15;;;;;;;36.90;25.10;;;;;;;13.34;100.00;101456.00;5075403;28;20023;-81
2022/07/01 02:07:41;;;;;;;36.85;26.52;;;;;;;13.35;100.00;101459.59;5079973;28;20447;-82
2022/07/01 02:10:07;;;;;;;36.10;25.20;;;;;;;13.35;100.00;101465.94;5066030;28;20492;-79
2022/07/01 02:12:32;;;;;;;37.03;26.10;;;;;;;13.31;100.00;101470.25;5082760;28;20080;-81
2022/07/01 02:14:58;;;;;;;35.40;25.05;;;;;;;13.35;100.00;101488.00;5081468;28;20108;-80
2022/07/01 02:17:25;;;;;;;36.85;24.75;;;;;;;13.35;100.00;101481.66;5067294;28;20046;-80
2022/07/01 02:19:50;;;;;;;35.03;24.55;;;;;;;13.35;100.00;101495.47;5067490;28;20070;-80
2022/07/01 02:22:15;;;;;;;35.28;25.17;;;;;;;13.37;100.00;101490.53;5066829;28;20608;-80
2022/07/01 02:24:40;;;;;;;38.05;25.90;;;;;;;13.34;100.00;101502.06;5081837;28;20508;-80
2022/07/01 02:27:06;;;;;;;39.88;26.58;;;;;;;13.31;100.00;101500.59;5067145;28;20032;-81
2022/07/01 02:29:31;;;;;;;39.63;27.23;;;;;;;13.26;100.00;101505.97;5066796;28;20028;-79
2022/07/01 02:31:56;;;;;;;43.65;29.60;;;;;;;13.26;100.00;101517.00;5081681;28;20028;-81
2022/07/01 02:34:22;;;;;;;40.90;28.48;;;;;;;13.22;100.00;101510.25;5085581;28;20028;-80
2022/07/01 02:36:47;;;;;;;41.03;28.38;;;;;;;13.23;100.00;101492.66;5069426;28;20024;-81
2022/07/01 02:39:12;;;;;;;41.58;28.30;;;;;;;13.23;100.00;101484.38;5067348;28;20032;-80
2022/07/01 02:42:22;;;;;;;43.22;28.92;;;;;;;13.26;100.00;101461.81;5076056;28;20031;-80
2022/07/01 02:44:23;;;;;;;45.17;29.77;;;;;;;13.23;100.00;101465.91;5085354;28;20407;-79
2022/07/01 02:46:48;;;;;;;45.85;29.92;;;;;;;13.21;100.00;101468.03;5066933;28;20032;-81
2022/07/01 02:49:15;;;;;;;45.10;28.65;;;;;;;13.21;100.00;101465.28;5068271;28;20480;-80
2022/07/01 02:51:40;;;;;;;41.03;29.05;;;;;;;13.22;100.00;101472.47;5080864;28;20601;-81
2022/07/01 02:54:05;;;;;;;44.50;30.15;;;;;;;13.25;100.00;101487.72;5087223;28;20016;-82
2022/07/01 02:56:30;;;;;;;40.30;28.83;;;;;;;13.24;100.00;101475.03;5069944;28;20028;-83
2022/07/01 02:58:56;;;;;;;42.28;29.08;;;;;;;13.23;100.00;101482.47;5076474;28;20024;-80
2022/07/01 03:01:21;;;;;;;43.45;29.77;;;;;;;13.26;100.00;101489.41;5086069;28;20032;-81
2022/07/01 03:03:46;;;;;;;44.80;29.15;;;;;;;13.25;100.00;101501.53;5078557;28;20107;-80
2022/07/01 03:06:11;;;;;;;47.50;31.50;;;;;;;13.24;100.00;101497.09;5069954;28;20037;-81
2022/07/01 03:08:37;;;;;;;47.65;29.83;;;;;;;13.29;100.00;101488.97;5062063;28;20449;-81
2022/07/01 03:11:02;;;;;;;46.67;31.23;;;;;;;13.24;100.00;101495.16;5046929;28;20247;-81
2022/07/01 03:13:27;;;;;;;49.58;31.30;;;;;;;13.24;100.00;101497.09;5058300;28;20541;-81
2022/07/01 03:15:52;;;;;;;48.90;31.30;;;;;;;13.23;100.00;101504.53;5069539;28;20047;-82
2022/07/01 03:18:18;;;;;;;50.50;33.17;;;;;;;13.22;100.00;101521.28;5082099;28;20162;-81
2022/07/01 03:20:43;;;;;;;50.80;31.77;;;;;;;13.23;100.00;101520.25;5086732;28;20083;-82
2022/07/01 03:23:08;;;;;;;46.15;30.25;;;;;;;13.26;100.00;101517.00;5085993;28;20032;-81
2022/07/01 03:25:35;;;;;;;44.97;29.70;;;;;;;13.27;100.00;101513.16;5076030;28;20025;-79
2022/07/01 03:28:03;;;;;;;43.20;29.48;;;;;;;13.30;100.00;101501.66;5066363;28;20020;-81
2022/07/01 03:30:28;;;;;;;42.22;29.52;;;;;;;13.30;100.00;101501.66;5086332;28;20136;-81
2022/07/01 03:32:53;;;;;;;44.15;29.38;;;;;;;13.32;100.00;101499.50;5083625;28;20192;-82
2022/07/01 03:35:39;;;;;;;42.67;30.30;;;;;;;13.32;100.00;101506.94;5079092;28;20040;-79
2022/07/01 03:38:05;;;;;;;43.70;30.17;;;;;;;13.30;100.00;101507.19;5066371;28;20025;-82
2022/07/01 03:40:33;;;;;;;49.17;30.33;;;;;;;13.28;100.00;101517.63;5066085;28;20166;-81
2022/07/01 03:42:59;;;;;;;44.78;30.98;;;;;;;13.28;100.00;101517.63;5064801;28;20032;-81
2022/07/01 03:45:25;;;;;;;47.72;32.08;;;;;;;13.27;100.00;101526.94;5071573;28;20356;-81
2022/07/01 03:47:51;;;;;;;50.90;32.85;;;;;;;13.27;100.00;101526.94;5067906;28;20016;-80
2022/07/01 03:50:17;;;;;;;45.42;32.20;;;;;;;13.28;100.00;101528.66;5078313;28;20024;-80
2022/07/01 03:52:42;;;;;;;49.90;32.95;;;;;;;13.27;100.00;101542.66;5066975;28;20051;-80
2022/07/01 03:55:11;;;;;;;51.45;34.30;;;;;;;13.25;100.00;101537.38;5063558;28;20032;-81
2022/07/01 03:57:37;;;;;;;52.58;34.63;;;;;;;13.25;100.00;101551.19;5065210;28;20028;-81
2022/07/01 04:00:04;;;;;;;54.22;34.80;;;;;;;13.26;100.00;101552.84;5065718;28;20318;-81
2022/07/01 04:02:30;;;;;;;54.65;35.25;;;;;;;13.23;100.00;101550.59;5082941;28;20078;-80
2022/07/01 04:04:55;;;;;;;51.03;33.72;;;;;;;13.26;100.00;101568.56;5066052;28;20021;-79
2022/07/01 04:07:21;;;;;;;47.53;30.85;;;;;;;13.26;100.00;101571.34;5070094;28;20484;-79
2022/07/01 04:09:46;;;;;;;48.22;31.38;;;;;;;13.29;100.00;101552.41;5072673;28;20062;-81
2022/07/01 04:12:12;;;;;;;47.35;32.00;;;;;;;13.20;100.00;101556.50;5066332;28;20036;-83
2022/07/01 04:14:38;;;;;;;49.67;31.73;;;;;;;13.16;100.00;101560.81;5078781;28;20103;-81
2022/07/01 04:17:03;;;;;;;50.80;30.70;;;;;;;13.12;100.00;101554.06;5064839;28;20081;-81
2022/07/01 04:19:29;;;;;;;45.58;31.17;;;;;;;13.14;100.00;101560.19;5074013;28;20038;-82
2022/07/01 04:24:38;;;;;;;46.92;30.60;;;;;;;13.11;100.00;101564.25;5067493;28;20036;-81
2022/07/01 04:27:03;;;;;;;52.80;31.25;;;;;;;13.09;100.00;101568.31;5067590;28;20036;-83
2022/07/01 04:29:29;;;;;;;46.45;30.67;;;;;;;13.08;100.00;101569.41;5079487;28;20027;-81
2022/07/01 04:31:55;;;;;;;47.50;30.10;;;;;;;13.08;100.00;101555.63;5077611;28;20020;-83
2022/07/01 04:34:20;;;;;;;49.05;32.60;;;;;;;13.06;100.00;101558.59;5085375;28;20028;-82
2022/07/01 04:36:45;;;;;;;46.95;31.40;;;;;;;13.03;100.00;101550.78;5075994;28;20020;-82
2022/07/01 04:39:11;;;;;;;47.65;31.25;;;;;;;13.05;100.00;101559.66;5070423;28;20031;-81
2022/07/01 04:44:20;;;;;;;50.33;32.88;;;;;;;13.03;100.00;101564.56;5085169;28;20609;-81
2022/07/01 04:46:45;;;;;;;52.42;32.60;;;;;;;13.05;100.00;101569.84;5077918;28;20057;-83
2022/07/01 04:49:11;;;;;;;55.22;32.38;;;;;;;13.07;100.00;101576.81;5063289;28;20036;-81
2022/07/01 04:51:36;;;;;;;52.83;34.38;;;;;;;13.10;100.00;101586.56;5064285;28;20021;-81
2022/07/01 04:54:06;;;;;;;52.50;33.47;;;;;;;13.17;100.00;101577.13;5063745;28;20546;-81
2022/07/01 04:56:33;;;;;;;56.78;34.42;;;;;;;13.15;100.00;101565.47;5063898;28;20480;-82
2022/07/01 04:58:58;;;;;;;52.10;34.10;;;;;;;13.17;100.00;101565.25;5062807;28;20640;-82
2022/07/01 05:01:24;;;;;;;54.78;33.75;;;;;;;13.16;100.00;101571.84;5063651;28;20035;-83
2022/07/01 05:03:50;;;;;;;53.97;32.83;;;;;;;13.16;100.00;101569.91;5063562;28;20021;-81
2022/07/01 05:06:15;;;;;;;52.92;33.08;;;;;;;13.15;100.00;101571.00;5063456;28;20024;-82
2022/07/01 05:08:40;;;;;;;50.17;32.42;;;;;;;13.13;99.75;101566.81;5064310;28;20060;-81
2022/07/01 05:11:06;;;;;;;53.78;33.40;;;;;;;13.14;100.00;101565.72;5064020;28;20123;-80
2022/07/01 05:13:33;;;;;;;51.45;32.92;;;;;;;13.19;100.00;101576.91;5063386;28;20082;-81
2022/07/01 05:15:58;;;;;;;53.20;33.35;;;;;;;13.22;100.00;101580.06;5063195;28;20547;-83
2022/07/01 05:23:52;;;;;;;42.83;28.50;;;;;;;13.33;99.51;101584.00;5064021;28;20040;-81
2022/07/01 05:26:17;;;;;;;44.40;28.15;;;;;;;13.35;98.59;101579.06;5064073;28;20029;-81
2022/07/01 05:28:43;;;;;;;40.60;26.65;;;;;;;13.38;99.51;101575.84;5064000;28;20021;-82
2022/07/01 05:31:08;;;;;;;37.58;25.05;;;;;;;13.38;99.41;101563.94;5063593;28;20021;-82
2022/07/01 05:33:34;;;;;;;38.40;25.58;;;;;;;13.42;99.11;101567.94;5064395;28;20039;-80
2022/07/01 05:35:59;;;;;;;38.42;25.02;;;;;;;13.45;98.60;101565.56;5063827;28;20154;-81
2022/07/01 05:38:24;;;;;;;35.92;23.92;;;;;;;13.43;97.98;101570.47;5063941;28;20028;-80
2022/07/01 05:40:52;;;;;;;38.95;23.65;;;;;;;13.42;98.28;101574.28;5063889;28;20032;-81
2022/07/01 05:43:17;;;;;;;34.97;22.92;;;;;;;13.45;97.31;101573.00;5062926;28;20587;-81
2022/07/01 05:45:43;;;;;;;35.03;23.58;;;;;;;13.42;98.80;101563.25;5063465;28;20115;-83
2022/07/01 05:48:08;;;;;;;35.90;23.77;;;;;;;13.41;97.88;101558.81;5064276;28;20033;-82
2022/07/01 05:50:34;;;;;;;31.90;23.98;;;;;;;13.40;98.34;101572.84;5064054;28;20024;-81
2022/07/01 05:52:59;;;;;;;34.17;22.15;;;;;;;13.37;97.92;101571.38;5066805;28;20158;-82
2022/07/01 05:55:24;;;;;;;36.05;23.40;;;;;;;13.38;97.37;101570.34;5067233;28;20021;-81
2022/07/01 05:57:51;;;;;;;35.80;24.67;;;;;;;13.34;98.67;101582.91;5066686;28;20035;-81
2022/07/01 06:00:16;;;;;;;32.17;21.92;;;;;;;13.33;98.72;101581.22;5066845;28;20455;-81
2022/07/01 06:02:42;;;;;;;33.20;22.92;;;;;;;13.35;98.76;101583.75;5067918;28;20103;-82
2022/07/01 06:05:07;;;;;;;36.15;23.45;;;;;;;13.45;99.62;101582.13;5066939;28;20265;-80
2022/07/01 06:07:32;;;;;;;31.10;22.77;;;;;;;13.60;98.15;101578.13;5066921;28;20488;-81
2022/07/01 06:09:58;;;;;;;36.00;23.05;;;;;;;13.68;96.96;101577.78;5066912;28;20063;-81
2022/07/01 06:12:23;;;;;;;30.95;21.33;;;;;;;13.70;96.25;101581.16;5066631;28;20035;-82
2022/07/01 06:14:48;;;;;;;33.85;22.42;;;;;;;13.63;96.96;101577.63;5065034;28;20361;-82
2022/07/01 06:17:14;;;;;;;31.23;22.38;;;;;;;13.64;97.88;101568.31;5066671;28;20035;-80
2022/07/01 06:19:40;;;;;;;35.30;24.55;;;;;;;13.70;98.56;101575.63;5067291;28;20017;-82
2022/07/01 06:22:06;;;;;;;33.25;23.10;;;;;;;13.74;97.16;101585.16;5064634;28;20028;-79
2022/07/01 06:24:32;;;;;;;32.80;21.98;;;;;;;13.76;96.83;101572.78;5064575;28;20029;-81
2022/07/01 06:26:57;;;;;;;30.77;22.08;;;;;;;13.84;96.59;101579.03;5066375;28;20032;-80
2022/07/01 06:29:23;;;;;;;33.95;21.92;;;;;;;13.90;96.23;101570.69;5066299;28;20017;-81
2022/07/01 06:31:48;;;;;;;31.58;20.95;;;;;;;13.94;93.47;101563.63;5066486;28;20529;-81
2022/07/01 06:34:13;;;;;;;34.58;21.08;;;;;;;13.87;95.13;101565.59;5066256;28;20027;-73
2022/07/01 06:36:39;;;;;;;31.88;21.67;;;;;;;13.93;94.43;101563.81;5067403;28;20385;-81
2022/07/01 06:39:04;;;;;;;31.25;20.73;;;;;;;13.88;94.83;101563.69;5067110;28;20065;-80
2022/07/01 06:41:29;;;;;;;29.88;20.50;;;;;;;13.89;93.57;101569.00;5066778;28;20512;-81
2022/07/01 06:43:55;;;;;;;29.70;20.83;;;;;;;13.90;94.75;101567.06;5065361;28;20062;-81
2022/07/01 06:46:21;;;;;;;31.67;20.33;;;;;;;13.92;93.50;101568.50;5067219;28;20066;-82
2022/07/01 06:48:46;;;;;;;33.15;20.10;;;;;;;13.96;94.95;101568.88;5067181;28;20066;-77
2022/07/01 06:51:12;;;;;;;33.63;20.58;;;;;;;14.07;94.86;101567.22;5080524;28;20018;-75
2022/07/01 06:53:38;;;;;;;30.88;21.30;;;;;;;14.20;94.63;101562.34;5078724;28;20039;-78
2022/07/01 06:56:03;;;;;;;29.05;19.65;;;;;;;14.24;93.82;101558.03;5084088;28;20032;-77
2022/07/01 06:58:29;;;;;;;24.45;17.67;;;;;;;14.25;91.07;101564.41;5070170;28;20459;-78
2022/07/01 07:00:54;;;;;;;29.23;18.10;;;;;;;14.34;92.06;101573.16;5059703;28;20032;-77
2022/07/01 07:03:19;;;;;;;26.08;18.13;;;;;;;14.43;91.40;101578.09;5062026;28;20036;-77
2022/07/01 07:05:44;;;;;;;26.23;18.83;;;;;;;14.56;91.77;101584.53;5066308;28;20036;-72
2022/07/01 07:08:10;;;;;;;26.20;17.52;;;;;;;14.67;90.53;101573.47;5062381;28;20044;-75
2022/07/01 07:10:35;;;;;;;26.42;17.13;;;;;;;14.78;89.36;101582.84;5065042;28;20081;-79
2022/07/01 07:13:00;;;;;;;26.60;17.50;;;;;;;14.83;89.14;101590.44;5059656;28;20103;-80
2022/07/01 07:15:25;;;;;;;25.80;15.20;;;;;;;14.87;87.11;101603.53;5059623;28;20108;-78
2022/07/01 07:17:51;;;;;;;20.95;13.93;;;;;;;14.90;85.54;101614.13;5054584;28;20389;-78
2022/07/01 07:20:17;;;;;;;21.58;14.73;;;;;;;14.97;86.66;101617.59;5068625;28;20059;-78
2022/07/01 07:22:42;;;;;;;21.90;13.55;;;;;;;15.03;84.90;101610.25;5080247;28;20017;-78
2022/07/01 07:25:08;;;;;;;22.15;14.38;;;;;;;15.03;85.44;101607.50;5066612;28;20017;-80
2022/07/01 07:27:33;;;;;;;18.88;13.65;;;;;;;14.99;84.65;101604.34;5065514;28;20029;-78
2022/07/01 07:29:58;;;;;;;19.70;12.07;;;;;;;15.00;83.57;101610.72;5064383;28;20165;-78
2022/07/01 07:32:23;;;;;;;25.67;13.07;;;;;;;15.12;83.06;101617.13;5067693;28;20024;-79
2022/07/01 07:34:49;;;;;;;20.90;13.20;;;;;;;15.21;82.47;101606.53;5065736;28;20025;-81
2022/07/01 07:37:14;;;;;;;19.45;12.45;;;;;;;15.34;84.01;101617.31;5065928;28;20710;-75
2022/07/01 07:39:39;;;;;;;20.52;12.88;;;;;;;15.47;83.31;101610.69;5065951;28;20033;-76
2022/07/01 07:42:05;;;;;;;19.30;11.45;;;;;;;15.54;82.87;101626.03;5076189;28;20110;-75
2022/07/01 07:44:31;;;;;;;17.75;10.48;;;;;;;15.59;80.40;101628.09;5072512;28;20040;-77
2022/07/01 07:46:59;;;;;;;16.83;9.48;;;;;;;15.73;78.68;101628.69;5064627;28;20028;-79
2022/07/01 07:49:25;;;;;;;16.98;8.18;;;;;;;15.77;77.67;101639.03;5065800;28;20107;-79
2022/07/01 07:51:51;;;;;;;15.95;8.65;;;;;;;15.70;77.71;101626.41;5065956;28;20560;-76
2022/07/01 07:54:17;;;;;;;14.88;8.23;;;;;;;15.70;78.21;101626.41;5066553;28;20031;-77
2022/07/01 07:56:42;;;;;;;13.73;7.95;;;;;;;15.81;78.31;101633.81;5065681;28;20103;-77
2022/07/01 07:59:08;;;;;;;13.23;7.53;;;;;;;15.87;75.97;101632.84;5064351;28;20107;-78
2022/07/01 08:01:33;;;;;;;13.65;7.18;;;;;;;15.94;77.09;101638.25;5062976;28;20036;-80
2022/07/01 08:03:58;;;;;;;14.02;7.22;;;;;;;15.94;74.92;101644.63;5072422;28;20034;-79
2022/07/01 08:06:24;;;;;;;12.85;6.68;;;;;;;15.94;74.77;101643.78;5079194;28;20033;-79
2022/07/01 08:08:49;;;;;;;11.93;6.55;;;;;;;15.98;73.02;101645.81;5086165;28;20127;-78
2022/07/01 08:11:14;;;;;;;14.60;6.53;;;;;;;16.04;75.51;101644.81;5070764;28;20028;-79
2022/07/01 08:13:40;;;;;;;10.13;6.55;;;;;;;16.12;72.29;101648.25;5064958;28;20349;-76
2022/07/01 08:16:05;;;;;;;13.25;7.35;;;;;;;16.14;75.85;101646.94;5067210;28;20035;-79
2022/07/01 08:18:31;;;;;;;12.95;6.93;;;;;;;16.27;74.80;101645.78;5065226;28;20078;-77
2022/07/01 08:20:56;;;;;;;11.15;6.63;;;;;;;16.31;71.90;101644.19;5062613;28;20040;-77
2022/07/01 08:23:22;;;;;;;10.70;6.05;;;;;;;16.34;72.50;101657.56;5056991;28;20890;-77
2022/07/01 08:25:49;;;;;;;12.65;7.00;;;;;;;16.48;72.61;101656.16;5068238;28;20020;-79
2022/07/01 08:28:15;;;;;;;10.45;5.20;;;;;;;16.61;70.43;101660.53;5071192;28;20038;-79
2022/07/01 08:30:40;;;;;;;7.47;4.18;;;;;;;16.65;68.37;101671.97;5062737;28;20540;-80
2022/07/01 08:33:06;;;;;;;9.43;4.53;;;;;;;16.71;68.70;101669.06;5059748;28;20124;-78
2022/07/01 08:35:31;;;;;;;8.95;4.68;;;;;;;16.75;68.45;101666.63;5061608;28;20362;-79
2022/07/01 08:37:56;;;;;;;9.05;3.83;;;;;;;16.77;67.06;101664.44;5065241;28;20473;-78
2022/07/01 08:40:29;;;;;;;7.35;3.17;;;;;;;16.87;66.58;101670.16;5065713;28;20177;-77
2022/07/01 08:42:59;;;;;;;8.57;3.50;;;;;;;16.94;64.08;101675.56;5063791;28;20055;-79
2022/07/01 08:45:30;;;;;;;10.02;3.33;;;;;;;17.11;64.19;101679.13;5064975;28;20056;-79
2022/07/01 08:48:00;;;;;;;7.72;3.60;;;;;;;17.22;64.54;101666.25;5065733;28;20024;-77
2022/07/01 08:50:27;;;;;;;7.53;3.38;;;;;;;17.41;66.58;101678.75;5065554;28;20150;-77
2022/07/01 08:52:53;;;;;;;9.07;3.15;;;;;;;17.52;63.75;101677.78;5050259;28;20029;-75
2022/07/01 08:55:20;;;;;;;8.60;3.00;;;;;;;17.60;64.17;101684.84;5064635;28;20108;-76
2022/07/01 08:57:45;;;;;;;7.70;3.28;;;;;;;17.78;63.03;101694.81;5064097;28;20025;-78
2022/07/01 09:00:11;;;;;;;7.00;2.53;;;;;;;17.79;60.23;101689.03;5060166;28;20521;-77
2022/07/01 09:03:03;;;;;;;7.47;2.78;;;;;;;17.92;62.91;101693.34;5067797;28;20032;-78
2022/07/01 09:05:30;;;;;;;5.88;2.65;;;;;;;17.93;61.95;101689.47;5069596;28;20480;-79
2022/07/01 09:07:57;;;;;;;7.40;3.15;;;;;;;18.11;63.29;101691.91;5063607;28;20059;-76
2022/07/01 09:10:22;;;;;;;6.15;2.92;;;;;;;18.18;62.68;101685.31;5067133;28;20041;-78
2022/07/01 09:12:48;;;;;;;6.95;3.22;;;;;;;18.11;58.57;101678.00;5064099;28;20027;-78
2022/07/01 09:15:21;;;;;;;6.07;3.20;;;;;;;18.18;61.67;101686.13;5069343;28;20106;-78
2022/07/01 09:17:46;;;;;;;6.85;3.65;;;;;;;18.22;61.50;101697.59;5067756;28;20099;-77
2022/07/01 09:20:26;;;;;;;8.27;3.50;;;;;;;18.25;62.02;101686.78;5063371;28;20186;-76
2022/07/01 09:23:06;;;;;;;6.95;3.15;;;;;;;18.30;60.22;101689.63;5071043;28;20116;-77
2022/07/01 09:25:36;;;;;;;8.30;3.28;;;;;;;18.34;61.22;101678.78;5063068;28;20112;-76
2022/07/01 09:28:24;;;;;;;10.93;4.20;;;;;;;18.50;59.37;101689.00;5051717;28;20149;-78
2022/07/01 09:30:52;;;;;;;6.38;3.40;;;;;;;18.33;58.95;101686.31;5076348;28;20506;-78
2022/07/01 09:33:20;;;;;;;7.63;3.45;;;;;;;18.32;59.32;101687.41;5067165;28;20031;-78
2022/07/01 09:35:49;;;;;;;6.65;3.83;;;;;;;18.80;60.56;101696.78;5071672;28;20489;-78
2022/07/01 09:38:18;;;;;;;8.63;3.70;;;;;;;19.83;56.60;101690.81;5060959;28;20025;-76
2022/07/01 09:40:58;;;;;;;6.93;3.08;;;;;;;21.12;57.25;101689.94;5067161;28;20085;-77
2022/07/01 09:43:25;;;;;;;6.35;3.17;;;;;;;22.15;50.20;101697.78;5068163;28;20059;-81
2022/07/01 09:45:58;;;;;;;10.40;2.93;;;;;;;22.98;46.79;101698.91;5066291;28;20085;-79
2022/07/01 09:48:42;;;;;;;6.97;2.88;;;;;;;22.86;44.33;101701.22;5065515;28;20791;-78
2022/07/01 09:51:08;;;;;;;6.32;2.72;;;;;;;22.70;46.01;101698.53;5061842;28;20427;-80
2022/07/01 09:53:34;;;;;;;8.20;2.63;;;;;;;22.70;45.88;101701.31;5068478;28;20493;-77
2022/07/01 09:56:00;;;;;;;7.68;3.00;;;;;;;23.86;42.68;101708.94;5068673;28;20044;-79
2022/07/01 09:58:26;;;;;;;10.35;3.20;;;;;;;24.34;43.08;101720.94;5066507;28;20071;-78
2022/07/01 10:00:55;;;;;;;7.15;2.30;;;;;;;23.08;42.49;101704.41;5066010;28;20035;-72
2022/07/01 10:03:22;;;;;;;6.85;2.60;;;;;;;21.79;43.32;101707.41;5066111;28;20028;-78
2022/07/01 10:05:47;;;;;;;7.30;2.80;;;;;;;22.54;45.42;101706.22;5067506;28;20039;-79
2022/07/01 10:08:59;;;;;;;8.97;3.13;;;;;;;25.02;42.69;101707.53;5069542;28;20056;-78
2022/07/01 10:11:55;;;;;;;6.88;2.63;;;;;;;26.31;39.48;101716.03;5042316;28;20227;-67
2022/07/01 10:14:22;;;;;;;7.20;2.30;;;;;;;27.54;35.14;101725.13;5045086;28;20059;-77
2022/07/01 10:16:48;;;;;;;6.72;2.15;;;;;;;26.67;35.04;101724.50;5049231;28;20111;-77
2022/07/01 10:19:25;;;;;;;7.53;2.25;;;;;;;25.53;38.89;101737.59;5080006;28;20028;-77
2022/07/01 10:21:53;;;;;;;6.13;2.40;;;;;;;23.61;39.26;101745.66;5059026;28;20181;-77
2022/07/01 10:24:19;;;;;;;;;;;;;;;23.01;44.02;101743.13;5067798;28;20298;-76
2022/07/01 10:26:45;;;;;;;9.23;2.40;;;;;;;24.19;41.35;101732.38;5067973;28;19920;-76
2022/07/01 10:29:28;;;;;;;7.70;2.15;;;;;;;26.45;36.59;101742.19;5061997;28;20117;-78
2022/07/01 10:31:54;;;;;;;7.90;1.90;;;;;;;26.16;34.63;101739.72;5060695;28;20124;-77
2022/07/01 10:34:22;;;;;;;6.68;2.05;;;;;;;26.29;35.30;101738.84;5066741;28;20024;-78
2022/07/01 10:37:01;;;;;;;5.07;2.25;;;;;;;26.38;36.10;101745.41;5077492;28;20027;-78
2022/07/01 10:39:27;;;;;;;6.40;2.20;;;;;;;24.91;39.48;101736.97;5065185;28;20696;-79
2022/07/01 10:41:52;;;;;;;7.72;2.40;;;;;;;25.10;37.15;101743.44;5067239;28;20452;-76
2022/07/01 10:44:18;;;;;;;7.77;2.80;;;;;;;25.22;38.99;101737.31;5066085;28;20031;-78
2022/07/01 10:47:04;;;;;;;4.95;1.73;;;;;;;24.63;39.91;101750.88;5052663;28;20019;-77
2022/07/01 10:49:36;;;;;;;8.80;2.30;;;;;;;24.47;41.95;101743.81;5055025;28;20033;-77
2022/07/01 10:52:05;;;;;;;7.65;2.28;;;;;;;23.78;40.85;101734.88;5048807;28;20116;-77
2022/07/01 10:54:55;;;;;;;7.70;2.30;;;;;;;23.03;42.63;101738.94;5048227;28;20044;-75
2022/07/01 10:57:31;;;;;;;9.05;2.50;;;;;;;22.57;42.54;101741.19;5047454;28;20043;-76
2022/07/01 10:59:59;;;;;;;9.13;2.58;;;;;;;22.27;44.33;101737.44;5048084;28;20043;-77
2022/07/01 11:02:30;;;;;;;8.45;2.97;;;;;;;21.90;44.48;101745.44;5061055;28;20024;-77
2022/07/01 11:04:58;;;;;;;11.82;2.72;;;;;;;21.68;43.35;101748.53;5072788;28;20114;-77
2022/07/01 11:07:25;;;;;;;10.82;3.03;;;;;;;21.43;44.05;101735.47;5057122;28;20032;-76
2022/07/01 11:09:50;;;;;;;7.83;2.30;;;;;;;21.47;44.51;101736.56;5067573;28;20021;-77
2022/07/01 11:12:16;;;;;;;9.80;2.80;;;;;;;21.96;45.19;101722.72;5061859;28;20351;-77
2022/07/01 11:14:42;;;;;;;8.80;2.45;;;;;;;22.38;46.91;101727.03;5083162;28;20016;-77
2022/07/01 11:17:09;;;;;;;9.20;2.40;;;;;;;22.50;46.23;101729.47;5071292;28;20032;-76
2022/07/01 11:19:34;;;;;;;8.88;2.45;;;;;;;22.57;43.21;101727.19;5069721;28;20039;-76